Ashby, MA

12:12 AM EDT on September 22, 2014 (GMT -0400)
KMAASHBY2 | Change Station
CLOSE
Current Station
Personal Weather Station
Location: Ashby, MA
Elevation: 695 ft
Nearby Weather Stations
Active Advisory: Special Statement

Elev 695 ft 42.69 °N, 71.79 °W | Updated 6 minutes ago

Mostly Cloudy
Mostly Cloudy
65.2 °F
Feels Like 65.2 °F
N
0.0
Wind Variable Wind from NE
Gusts 4.0 mph

Today
High -- | Low -- °F
--% Chance of Precip.
Yesterday
High -- | Low -- °F
Precip. -- in
6:34 AM 6:44 PM
Waning Crescent, 4% visible
Pressure 29.58 in
Visibility 2.5 miles
Clouds Mostly Cloudy 1100 ft
Dew Point 65 °F
Humidity 98%
Rainfall 0.78 in
Snow Depth Not available.
UV 0 out of 12
Pollen 1.50 out of 12
Air Quality Not available.
Flu Activity Not available.
SPECI KFIT 220344Z AUTO 00000KT 2 1/2SM BR BKN011 18/17 A2958 RMK AO2 T01780172

More Conditions Fewer Conditions

Pressure 29.58 in
Visibility 2.5 miles
Clouds Mostly Cloudy 1100 ft
Dew Point 65 °F
Humidity 98%
Rainfall 0.78 in
Snow Depth Not available.
UV 0 out of 12
Pollen 1.50 out of 12
Air Quality Not available.
Flu Activity Not available.
SPECI KFIT 220344Z AUTO 00000KT 2 1/2SM BR BKN011 18/17 A2958 RMK AO2 T01780172

More Conditions Fewer Conditions

10-Day Weather Forecast

Almanac

Astronomy

Sep. 22, 2014 Rise Set
Actual Time 6:34 AM EDT 6:44 PM EDT
Civil Twilight 6:06 AM EDT 7:12 PM EDT
Nautical Twilight 5:33 AM EDT 7:45 PM EDT
Astronomical Twilight 4:59 AM EDT 8:19 PM EDT
Moon 4:58 AM EDT 5:51 PM EDT
Length of Visible Light 13h 06m
Length of Day
12h 10m
Tomorrow will be 2m 52s shorter.
Waning Crescent, 4% of the Moon is Illuminated
Today
Waning Crescent
Sep 24
New
Oct 1
First Quarter
Oct 8
Full
Oct 15
Last Quarter

Yesterday's Extremes

State Highs State Lows

Community

WunderPhotos

Upload Photos

1,755,383 photos uploaded!

Nearby

Air Quality

  Air Quality AQ Index Pollutant
Sunday Good
PM2.5
Sunday Good
OZONE
Monday Good
PM2.5
Monday Good
OZONE

Snow Depth

Station Depth Elevation
No new snow has been reported.

Earthquake Activity

City Distance Mag. Time & Date
No recent earthquake activity has been reported nearby.
Minimum magnitude displayed is 2.5.

Coastal Water Temperatures

Place Temperature
No Stations Reporting

Nearby Weather Stations